createdAt,value
2019-01-20T00:00:28.486Z,73.49
2019-01-20T00:02:56.735Z,73.29
2019-01-20T00:05:25.003Z,74.84
2019-01-20T00:07:53.264Z,70.99
2019-01-20T00:10:23.188Z,74.33
2019-01-20T00:12:51.458Z,74.33
2019-01-20T00:15:20.694Z,72.62
2019-01-20T00:17:48.970Z,73.20
2019-01-20T00:20:17.307Z,73.40
2019-01-20T00:22:45.571Z,73.48
2019-01-20T00:25:14.094Z,74.33
2019-01-20T00:27:42.367Z,72.46
2019-01-20T00:30:13.946Z,75.77
2019-01-20T00:32:42.190Z,73.00
2019-01-20T00:35:10.552Z,74.48
2019-01-20T00:37:38.818Z,77.06
2019-01-20T00:40:13.173Z,74.45
2019-01-20T00:42:41.531Z,77.17
2019-01-20T00:45:18.140Z,74.89
2019-01-20T00:47:46.492Z,73.71
2019-01-20T00:50:17.979Z,71.04
2019-01-20T00:52:46.322Z,73.82
2019-01-20T00:55:16.714Z,73.08
2019-01-20T00:57:45.215Z,73.59
2019-01-20T01:00:18.114Z,74.18
2019-01-20T01:02:46.444Z,73.28
2019-01-20T01:05:15.485Z,73.23
2019-01-20T01:07:43.892Z,74.91
2019-01-20T01:10:12.285Z,74.81
2019-01-20T01:12:41.493Z,75.59
2019-01-20T01:15:11.501Z,75.19
2019-01-20T01:17:39.747Z,74.23
2019-01-20T01:20:13.620Z,73.10
2019-01-20T01:22:41.856Z,73.81
2019-01-20T01:25:11.565Z,72.17
2019-01-20T01:27:39.907Z,73.11
2019-01-20T01:30:14.111Z,72.29
2019-01-20T01:32:42.368Z,72.12
2019-01-20T01:35:10.773Z,74.72
2019-01-20T01:37:39.043Z,74.72
2019-01-20T01:40:10.640Z,74.13
2019-01-20T01:42:39.019Z,74.68
2019-01-20T01:45:10.209Z,75.61
2019-01-20T01:47:38.525Z,75.62
2019-01-20T01:50:08.568Z,73.83
2019-01-20T01:52:36.823Z,74.43
2019-01-20T01:55:07.240Z,71.48
2019-01-20T01:57:35.574Z,71.41
2019-01-20T02:00:13.045Z,73.12
2019-01-20T02:02:41.305Z,70.96
2019-01-20T02:05:10.130Z,70.96
2019-01-20T02:07:38.396Z,70.63
2019-01-20T02:10:11.929Z,73.30
2019-01-20T02:12:40.205Z,73.73
2019-01-20T02:15:10.515Z,72.31
2019-01-20T02:17:38.774Z,71.83
2019-01-20T02:20:10.457Z,71.83
2019-01-20T02:22:38.718Z,71.26
2019-01-20T02:25:07.044Z,74.12
2019-01-20T02:27:35.293Z,74.00
2019-01-20T02:30:05.273Z,75.02
2019-01-20T02:32:35.149Z,74.52
2019-01-20T02:35:03.684Z,74.52
2019-01-20T02:37:31.956Z,74.69
2019-01-20T02:40:00.399Z,77.08
2019-01-20T02:42:32.008Z,77.08
2019-01-20T02:45:02.356Z,76.79
2019-01-20T02:47:30.635Z,77.00
2019-01-20T02:49:58.912Z,77.46
2019-01-20T02:52:27.185Z,74.95
2019-01-20T02:54:58.174Z,74.80
2019-01-20T02:57:26.418Z,73.44
2019-01-20T02:59:57.732Z,74.32
2019-01-20T03:02:25.984Z,75.52
2019-01-20T03:04:54.256Z,73.81
2019-01-20T03:07:22.610Z,74.48
2019-01-20T03:09:50.879Z,74.57
2019-01-20T03:12:19.125Z,72.37
2019-01-20T03:14:47.404Z,72.71
2019-01-20T03:17:15.656Z,72.32
2019-01-20T03:19:43.917Z,72.78
2019-01-20T03:22:15.022Z,72.78
2019-01-20T03:24:43.299Z,73.70
2019-01-20T03:27:11.555Z,73.75
2019-01-20T03:29:39.831Z,73.42
2019-01-20T03:32:08.100Z,74.75
2019-01-20T03:34:36.357Z,73.02
2019-01-20T03:37:04.723Z,73.02
2019-01-20T03:39:32.974Z,71.89
2019-01-20T03:42:01.258Z,73.53
2019-01-20T03:44:29.507Z,72.51
2019-01-20T03:46:57.830Z,72.24
2019-01-20T03:49:26.096Z,72.16
2019-01-20T03:51:54.367Z,73.10
2019-01-20T03:54:22.683Z,73.19
2019-01-20T03:56:50.970Z,75.93
2019-01-20T03:59:19.284Z,74.91
2019-01-20T04:01:47.667Z,74.77
2019-01-20T04:04:15.942Z,74.19
2019-01-20T04:06:44.192Z,74.47
2019-01-20T04:09:12.460Z,73.12
2019-01-20T04:11:40.728Z,73.12
2019-01-20T04:14:08.977Z,71.85
2019-01-20T04:16:37.353Z,72.23
2019-01-20T04:19:05.616Z,73.86
2019-01-20T04:21:33.885Z,73.17
2019-01-20T04:24:02.159Z,73.63
2019-01-20T04:26:30.407Z,71.90
2019-01-20T04:28:58.674Z,70.29
2019-01-20T04:31:26.919Z,71.52
2019-01-20T04:33:55.199Z,72.92
2019-01-20T04:36:23.473Z,73.94
2019-01-20T04:38:51.728Z,70.90
2019-01-20T04:41:20.014Z,71.51
2019-01-20T04:43:48.263Z,72.79
2019-01-20T04:46:16.536Z,72.68
2019-01-20T04:48:44.787Z,71.29
2019-01-20T04:51:13.048Z,71.85
2019-01-20T04:53:41.776Z,71.14
2019-01-20T04:56:10.087Z,72.15
2019-01-20T04:58:38.347Z,71.82
2019-01-20T05:01:06.619Z,72.21
2019-01-20T05:03:34.885Z,72.49
2019-01-20T05:06:03.465Z,73.54
2019-01-20T05:08:31.739Z,73.72
2019-01-20T05:11:00.001Z,73.80
2019-01-20T05:13:28.260Z,73.32
2019-01-20T05:15:56.518Z,72.71
2019-01-20T05:18:24.890Z,74.55
2019-01-20T05:20:53.164Z,73.54
2019-01-20T05:23:21.413Z,73.21
2019-01-20T05:25:49.705Z,73.11
2019-01-20T05:28:17.975Z,73.72
2019-01-20T05:30:46.287Z,73.57
2019-01-20T05:33:14.559Z,72.77
2019-01-20T05:35:42.807Z,72.43
2019-01-20T05:38:11.094Z,72.31
2019-01-20T05:40:39.346Z,73.48
2019-01-20T05:43:07.621Z,72.56
2019-01-20T05:45:35.871Z,71.41
2019-01-20T05:48:04.274Z,71.95
2019-01-20T05:50:32.553Z,72.22
2019-01-20T05:53:00.885Z,73.23
2019-01-20T05:55:29.143Z,73.23
2019-01-20T05:57:57.401Z,74.27
2019-01-20T06:00:27.794Z,74.31
2019-01-20T06:02:56.129Z,73.81
2019-01-20T06:05:24.373Z,73.81
2019-01-20T06:07:52.734Z,75.02
2019-01-20T06:10:21.079Z,73.19
2019-01-20T06:12:53.938Z,71.81
2019-01-20T06:15:21.160Z,71.81
2019-01-20T06:17:49.492Z,72.50
2019-01-20T06:20:18.274Z,73.88
2019-01-20T06:22:46.535Z,74.35
2019-01-20T06:25:14.921Z,73.37
2019-01-20T06:27:43.250Z,72.96
2019-01-20T06:30:20.588Z,72.07
2019-01-20T06:32:48.864Z,73.21
2019-01-20T06:35:17.140Z,73.29
2019-01-20T06:37:45.383Z,73.29
2019-01-20T06:40:13.723Z,73.11
2019-01-20T06:42:42.034Z,73.11
2019-01-20T06:45:13.300Z,74.18
2019-01-20T06:47:41.655Z,72.64
2019-01-20T06:50:12.453Z,73.35
2019-01-20T06:52:40.990Z,72.20
2019-01-20T06:55:10.903Z,72.63
2019-01-20T06:57:39.247Z,71.71
2019-01-20T07:00:18.906Z,72.45
2019-01-20T07:02:47.255Z,74.25
2019-01-20T07:05:16.191Z,74.25
2019-01-20T07:07:44.728Z,74.66
2019-01-20T07:10:15.117Z,73.58
2019-01-20T07:12:43.407Z,73.58
2019-01-20T07:15:14.332Z,71.43
2019-01-20T07:17:42.597Z,73.07
2019-01-20T07:20:12.709Z,72.46
2019-01-20T07:22:40.979Z,72.23
2019-01-20T07:25:09.398Z,72.62
2019-01-20T07:27:37.654Z,71.98
2019-01-20T07:30:15.051Z,73.12
2019-01-20T07:32:43.371Z,73.12
2019-01-20T07:35:11.900Z,72.73
2019-01-20T07:37:40.243Z,72.73
2019-01-20T07:40:11.436Z,71.66
2019-01-20T07:42:39.706Z,74.24
2019-01-20T07:45:10.507Z,73.48
2019-01-20T07:47:38.831Z,73.09
2019-01-20T07:50:10.284Z,73.09
2019-01-20T07:52:38.539Z,74.97
2019-01-20T07:55:09.036Z,72.61
2019-01-20T07:57:37.292Z,71.84
2019-01-20T08:00:14.055Z,71.67
2019-01-20T08:02:42.317Z,71.67
2019-01-20T08:05:10.951Z,72.38
2019-01-20T08:07:39.224Z,71.23
2019-01-20T08:10:13.489Z,71.10
2019-01-20T08:12:41.826Z,72.27
2019-01-20T08:15:12.713Z,70.50
2019-01-20T08:17:41.002Z,70.50
2019-01-20T08:20:12.419Z,70.22
2019-01-20T08:22:40.706Z,71.29
2019-01-20T08:25:10.491Z,69.58
2019-01-20T08:27:38.791Z,70.45
2019-01-20T08:30:13.231Z,68.55
2019-01-20T08:32:41.479Z,69.50
2019-01-20T08:35:12.108Z,69.64
2019-01-20T08:37:40.415Z,69.86
2019-01-20T08:40:14.520Z,69.86
2019-01-20T08:42:42.764Z,70.02
2019-01-20T08:45:16.765Z,69.12
2019-01-20T08:47:46.516Z,69.85
2019-01-20T08:50:14.855Z,68.25
2019-01-20T08:52:43.131Z,68.32
2019-01-20T08:55:11.542Z,67.52
2019-01-20T08:57:39.810Z,68.44
2019-01-20T09:00:14.209Z,70.57
2019-01-20T09:02:42.507Z,68.58
2019-01-20T09:05:11.884Z,67.68
2019-01-20T09:07:40.148Z,69.25
2019-01-20T09:10:11.594Z,68.92
2019-01-20T09:12:40.358Z,68.97
2019-01-20T09:15:09.160Z,68.03
2019-01-20T09:17:37.510Z,69.57
2019-01-20T09:20:11.341Z,68.87
2019-01-20T09:22:39.636Z,69.31
2019-01-20T09:25:10.544Z,68.62
2019-01-20T09:27:38.839Z,67.25
2019-01-20T09:30:16.210Z,67.39
2019-01-20T09:32:44.512Z,66.55
2019-01-20T09:35:12.919Z,68.81
2019-01-20T09:37:41.238Z,66.93
2019-01-20T09:40:12.283Z,65.26
2019-01-20T09:42:40.559Z,68.05
2019-01-20T09:45:22.746Z,65.85
2019-01-20T09:47:51.007Z,67.27
2019-01-20T09:50:19.344Z,64.42
2019-01-20T09:52:47.697Z,64.32
2019-01-20T09:55:15.946Z,64.85
2019-01-20T09:57:44.705Z,63.52
2019-01-20T10:00:21.497Z,63.83
2019-01-20T10:02:49.751Z,66.27
2019-01-20T10:05:18.031Z,65.59
2019-01-20T10:07:46.358Z,62.67
2019-01-20T10:10:18.437Z,63.93
2019-01-20T10:12:46.707Z,65.85
2019-01-20T10:15:17.482Z,64.44
2019-01-20T10:17:45.755Z,65.93
2019-01-20T10:20:17.126Z,62.01
2019-01-20T10:22:45.459Z,64.72
2019-01-20T10:25:15.137Z,64.21
2019-01-20T10:27:43.613Z,64.54
2019-01-20T10:30:17.750Z,62.14
2019-01-20T10:32:48.011Z,62.46
2019-01-20T10:35:16.384Z,63.17
2019-01-20T10:37:44.751Z,62.88
2019-01-20T10:40:13.139Z,63.04
2019-01-20T10:42:41.514Z,66.07
2019-01-20T10:45:10.672Z,65.12
2019-01-20T10:47:38.952Z,63.72
2019-01-20T10:50:12.552Z,64.59
2019-01-20T10:52:40.810Z,62.96
2019-01-20T10:55:09.147Z,63.98
2019-01-20T10:57:37.466Z,63.64
2019-01-20T11:00:23.928Z,65.02
2019-01-20T11:02:52.284Z,65.12
2019-01-20T11:05:25.025Z,64.99
2019-01-20T11:07:50.591Z,64.26
2019-01-20T11:10:18.944Z,63.80
2019-01-20T11:12:47.233Z,64.73
2019-01-20T11:15:16.919Z,66.55
2019-01-20T11:17:45.270Z,64.98
2019-01-20T11:20:21.349Z,64.65
2019-01-20T11:22:49.628Z,64.57
2019-01-20T11:25:25.831Z,66.24
2019-01-20T11:27:54.102Z,66.13
2019-01-20T11:30:22.441Z,66.22
2019-01-20T11:32:50.726Z,66.80
2019-01-20T11:35:19.954Z,66.11
2019-01-20T11:37:48.700Z,65.26
2019-01-20T11:40:16.978Z,66.10
2019-01-20T11:42:45.307Z,65.90
2019-01-20T11:45:16.781Z,65.87
2019-01-20T11:47:45.025Z,65.08
2019-01-20T11:50:13.737Z,63.78
2019-01-20T11:52:42.028Z,61.89
2019-01-20T11:55:16.345Z,62.41
2019-01-20T11:57:44.604Z,61.00
2019-01-20T12:00:28.047Z,60.30
2019-01-20T12:02:56.366Z,59.80
2019-01-20T12:05:24.741Z,58.92
2019-01-20T12:07:54.259Z,57.72
2019-01-20T12:10:22.562Z,56.70
2019-01-20T12:12:52.487Z,57.78
2019-01-20T12:15:20.872Z,57.87
2019-01-20T12:17:49.266Z,55.70
2019-01-20T12:20:17.829Z,52.58
2019-01-20T12:22:46.072Z,53.30
2019-01-20T12:25:19.081Z,53.79
2019-01-20T12:27:47.347Z,50.96
2019-01-20T12:30:18.791Z,52.72
2019-01-20T12:32:47.092Z,55.76
2019-01-20T12:35:15.442Z,51.63
2019-01-20T12:37:43.726Z,50.31
2019-01-20T12:40:15.296Z,52.04
2019-01-20T12:42:43.581Z,49.03
2019-01-20T12:45:11.866Z,47.62
2019-01-20T12:47:40.154Z,49.77
2019-01-20T12:50:16.939Z,47.89
2019-01-20T12:52:45.222Z,48.91
2019-01-20T12:55:15.031Z,48.17
2019-01-20T12:57:43.390Z,45.92
2019-01-20T13:00:19.355Z,45.61
2019-01-20T13:02:48.075Z,45.71
2019-01-20T13:05:16.564Z,46.28
2019-01-20T13:07:44.859Z,43.26
2019-01-20T13:10:18.472Z,44.48
2019-01-20T13:12:47.129Z,44.92
2019-01-20T13:15:18.117Z,48.11
2019-01-20T13:17:46.386Z,45.17
2019-01-20T13:20:20.310Z,43.73
2019-01-20T13:22:48.657Z,43.75
2019-01-20T13:25:19.864Z,42.06
2019-01-20T13:27:48.159Z,42.99
2019-01-20T13:30:21.461Z,45.17
2019-01-20T13:32:49.849Z,43.69
2019-01-20T13:35:19.480Z,43.32
2019-01-20T13:37:50.124Z,42.38
2019-01-20T13:40:27.191Z,41.42
2019-01-20T13:42:55.557Z,43.61
2019-01-20T13:45:23.838Z,40.98
2019-01-20T13:47:52.115Z,41.91
2019-01-20T13:50:20.575Z,43.24
2019-01-20T13:52:48.920Z,40.09
2019-01-20T13:55:17.909Z,42.67
2019-01-20T13:57:46.207Z,43.35
2019-01-20T14:00:21.468Z,41.43
2019-01-20T14:02:49.747Z,43.29
2019-01-20T14:05:18.079Z,44.04
2019-01-20T14:07:46.378Z,44.92
2019-01-20T14:10:17.604Z,44.34
2019-01-20T14:12:45.945Z,45.49
2019-01-20T14:15:15.568Z,46.38
2019-01-20T14:17:44.749Z,48.14
2019-01-20T14:20:15.866Z,47.23
2019-01-20T14:22:44.196Z,47.67
2019-01-20T14:25:21.017Z,49.31
2019-01-20T14:27:49.349Z,48.66
2019-01-20T14:30:31.892Z,48.38
2019-01-20T14:33:00.261Z,50.13
2019-01-20T14:35:28.611Z,49.32
2019-01-20T14:37:56.886Z,49.35
2019-01-20T14:40:25.299Z,49.26
2019-01-20T14:42:53.927Z,49.81
2019-01-20T14:45:22.306Z,51.11
2019-01-20T14:47:50.565Z,51.40
2019-01-20T14:50:26.956Z,50.78
2019-01-20T14:52:55.390Z,51.33
2019-01-20T14:55:24.313Z,51.56
2019-01-20T14:57:52.596Z,54.55
2019-01-20T15:00:30.020Z,52.94
2019-01-20T15:02:58.370Z,51.92
2019-01-20T15:05:29.031Z,51.79
2019-01-20T15:07:58.853Z,53.76
2019-01-20T15:10:27.219Z,53.27
2019-01-20T15:12:55.494Z,53.71
2019-01-20T15:15:29.430Z,54.23
2019-01-20T15:17:57.727Z,53.65
2019-01-20T15:20:29.890Z,53.75
2019-01-20T15:22:58.252Z,54.81
2019-01-20T15:25:26.530Z,54.58
2019-01-20T15:27:54.809Z,55.94
2019-01-20T15:30:34.392Z,54.66
2019-01-20T15:33:04.608Z,56.48
2019-01-20T15:35:32.956Z,53.31
2019-01-20T15:38:01.286Z,55.34
2019-01-20T15:40:29.713Z,53.82
2019-01-20T15:42:57.985Z,53.95
2019-01-20T15:45:26.330Z,55.38
2019-01-20T15:47:54.668Z,54.97
2019-01-20T15:50:25.357Z,56.26
2019-01-20T15:52:53.711Z,56.93
2019-01-20T15:55:22.018Z,56.53
2019-01-20T15:57:50.420Z,55.18
2019-01-20T16:00:26.899Z,57.64
2019-01-20T16:02:55.257Z,55.87
2019-01-20T16:05:24.396Z,57.43
2019-01-20T16:07:52.650Z,57.32
2019-01-20T16:10:20.930Z,58.41
2019-01-20T16:12:49.183Z,57.68
2019-01-20T16:15:24.594Z,57.83
2019-01-20T16:17:54.412Z,57.95
2019-01-20T16:20:23.035Z,58.55
2019-01-20T16:22:51.777Z,57.16
2019-01-20T16:25:23.240Z,57.77
2019-01-20T16:27:51.573Z,59.17
2019-01-20T16:30:22.608Z,59.80
2019-01-20T16:32:51.141Z,60.10
2019-01-20T16:35:22.576Z,59.22
2019-01-20T16:37:51.190Z,59.32
2019-01-20T16:40:21.710Z,57.91
2019-01-20T16:42:49.988Z,59.17
2019-01-20T16:45:31.965Z,57.79
2019-01-20T16:47:57.478Z,58.91
2019-01-20T16:50:26.047Z,61.42
2019-01-20T16:52:54.829Z,59.24
2019-01-20T16:55:23.358Z,58.70
2019-01-20T16:57:51.729Z,62.00
2019-01-20T17:00:29.171Z,60.83
2019-01-20T17:02:57.566Z,61.78
2019-01-20T17:05:27.232Z,59.76
2019-01-20T17:07:55.754Z,58.48
2019-01-20T17:10:32.434Z,59.51
2019-01-20T17:13:00.753Z,61.36
2019-01-20T17:15:39.089Z,63.66
2019-01-20T17:18:01.884Z,60.22
2019-01-20T17:20:30.162Z,61.21
2019-01-20T17:22:58.420Z,61.34
2019-01-20T17:25:26.698Z,62.23
2019-01-20T17:27:54.955Z,63.25
2019-01-20T17:30:31.676Z,61.27
2019-01-20T17:32:59.966Z,63.37
2019-01-20T17:35:28.295Z,62.87
2019-01-20T17:37:56.626Z,61.29
2019-01-20T17:40:28.717Z,62.67
2019-01-20T17:42:57.440Z,61.71
2019-01-20T17:45:37.583Z,62.63
2019-01-20T17:48:06.042Z,63.01
2019-01-20T17:50:36.862Z,61.79
2019-01-20T17:53:06.842Z,63.30
2019-01-20T17:55:35.372Z,63.28
2019-01-20T17:58:04.120Z,62.89
2019-01-20T18:00:38.411Z,64.94
2019-01-20T18:03:07.735Z,63.69
2019-01-20T18:05:36.279Z,64.93
2019-01-20T18:08:04.737Z,64.23
2019-01-20T18:10:33.045Z,63.58
2019-01-20T18:13:01.370Z,65.51
2019-01-20T18:15:29.747Z,63.59
2019-01-20T18:17:58.965Z,64.05
2019-01-20T18:20:34.002Z,64.33
2019-01-20T18:23:02.334Z,63.24
2019-01-20T18:25:30.638Z,64.47
2019-01-20T18:27:58.975Z,63.85
2019-01-20T18:30:29.818Z,64.33
2019-01-20T18:32:58.094Z,65.22
2019-01-20T18:35:27.704Z,66.21
2019-01-20T18:37:55.970Z,66.09
2019-01-20T18:40:25.900Z,64.23
2019-01-20T18:42:54.403Z,64.01
2019-01-20T18:45:33.563Z,65.34
2019-01-20T18:48:01.830Z,63.64
2019-01-20T18:50:32.749Z,63.64
2019-01-20T18:53:01.028Z,65.91
2019-01-20T18:55:29.320Z,66.04
2019-01-20T18:57:57.678Z,68.08
2019-01-20T19:00:34.868Z,67.11
2019-01-20T19:03:03.159Z,68.28
2019-01-20T19:05:31.454Z,71.15
2019-01-20T19:07:59.977Z,67.36
2019-01-20T19:10:28.319Z,66.22
2019-01-20T19:12:56.574Z,66.51
2019-01-20T19:15:25.006Z,66.99
2019-01-20T19:17:53.558Z,66.34
2019-01-20T19:20:25.487Z,67.20
2019-01-20T19:22:55.926Z,66.20
2019-01-20T19:25:24.289Z,69.06
2019-01-20T19:27:52.624Z,67.34
2019-01-20T19:30:31.019Z,68.90
2019-01-20T19:32:59.321Z,68.18
2019-01-20T19:35:28.354Z,70.15
2019-01-20T19:37:56.785Z,71.29
2019-01-20T19:40:25.075Z,69.97
2019-01-20T19:42:53.380Z,66.94
2019-01-20T19:45:22.225Z,66.51
2019-01-20T19:47:50.536Z,66.49
2019-01-20T19:50:19.317Z,70.09
2019-01-20T19:52:47.661Z,70.17
2019-01-20T19:55:30.241Z,69.09
2019-01-20T19:57:58.697Z,68.83
2019-01-20T20:00:29.520Z,71.23
2019-01-20T20:02:57.789Z,70.82
2019-01-20T20:05:26.338Z,69.70
2019-01-20T20:07:55.561Z,68.98
2019-01-20T20:10:25.868Z,68.15
2019-01-20T20:12:55.151Z,68.98
2019-01-20T20:15:25.303Z,69.31
2019-01-20T20:17:53.645Z,69.19
2019-01-20T20:20:22.383Z,69.25
2019-01-20T20:22:50.732Z,68.62
2019-01-20T20:25:23.945Z,67.54
2019-01-20T20:27:53.024Z,68.22
2019-01-20T20:30:24.051Z,68.40
2019-01-20T20:32:52.402Z,68.12
2019-01-20T20:35:20.753Z,68.79
2019-01-20T20:37:49.068Z,67.37
2019-01-20T20:40:20.750Z,68.06
2019-01-20T20:42:49.215Z,67.50
2019-01-20T20:45:20.078Z,66.51
2019-01-20T20:47:48.417Z,68.12
2019-01-20T20:50:17.827Z,68.68
2019-01-20T20:52:46.446Z,68.58
2019-01-20T20:55:14.733Z,66.94
2019-01-20T20:57:43.063Z,67.24
2019-01-20T21:00:14.255Z,67.10
2019-01-20T21:02:42.625Z,67.27
2019-01-20T21:05:11.145Z,66.76
2019-01-20T21:07:39.529Z,65.97
2019-01-20T21:10:13.727Z,68.74
2019-01-20T21:12:42.000Z,66.16
2019-01-20T21:15:15.575Z,69.16
2019-01-20T21:17:48.131Z,67.13
2019-01-20T21:20:19.102Z,67.50
2019-01-20T21:22:47.737Z,68.03
2019-01-20T21:25:16.093Z,67.39
2019-01-20T21:27:44.358Z,66.48
2019-01-20T21:30:17.911Z,68.02
2019-01-20T21:32:46.190Z,70.07
2019-01-20T21:35:14.515Z,70.27
2019-01-20T21:37:42.867Z,69.73
2019-01-20T21:40:13.862Z,68.02
2019-01-20T21:42:42.148Z,67.28
2019-01-20T21:45:12.713Z,66.27
2019-01-20T21:47:41.001Z,66.29
2019-01-20T21:50:15.102Z,68.07
2019-01-20T21:52:43.394Z,67.28
2019-01-20T21:55:11.732Z,68.84
2019-01-20T21:57:40.047Z,68.15
2019-01-20T22:00:11.640Z,68.05
2019-01-20T22:02:39.921Z,70.85
2019-01-20T22:05:10.023Z,70.18
2019-01-20T22:07:38.286Z,69.60
2019-01-20T22:10:09.731Z,70.92
2019-01-20T22:12:38.082Z,69.45
2019-01-20T22:15:07.797Z,70.68
2019-01-20T22:17:36.148Z,69.89
2019-01-20T22:20:07.331Z,69.62
2019-01-20T22:22:35.624Z,70.38
2019-01-20T22:25:05.018Z,68.65
2019-01-20T22:27:33.309Z,68.18
2019-01-20T22:30:01.567Z,70.31
2019-01-20T22:32:29.973Z,68.87
2019-01-20T22:34:58.264Z,69.65
2019-01-20T22:37:26.575Z,69.60
2019-01-20T22:39:54.848Z,70.09
2019-01-20T22:42:23.180Z,70.60
2019-01-20T22:44:51.461Z,70.77
2019-01-20T22:47:19.717Z,68.20
2019-01-20T22:49:47.987Z,69.18
2019-01-20T22:52:16.261Z,68.32
2019-01-20T22:54:44.536Z,70.02
2019-01-20T22:57:12.822Z,70.49
2019-01-20T22:59:41.089Z,71.98
2019-01-20T23:02:09.443Z,70.81
2019-01-20T23:04:37.716Z,70.43
2019-01-20T23:07:06.003Z,68.49
2019-01-20T23:09:34.260Z,70.32
2019-01-20T23:12:02.577Z,68.80
2019-01-20T23:14:30.853Z,70.40
2019-01-20T23:16:59.130Z,70.19
2019-01-20T23:19:27.382Z,70.18
2019-01-20T23:21:55.653Z,68.44
2019-01-20T23:24:23.930Z,70.08
2019-01-20T23:26:52.349Z,70.49
2019-01-20T23:29:20.685Z,71.65
2019-01-20T23:31:48.965Z,73.27
2019-01-20T23:34:17.243Z,74.23
2019-01-20T23:36:45.512Z,74.01
2019-01-20T23:39:13.765Z,74.29
2019-01-20T23:41:42.031Z,76.17
2019-01-20T23:44:10.280Z,73.05
2019-01-20T23:46:38.528Z,73.05
2019-01-20T23:49:06.881Z,72.22
2019-01-20T23:51:35.138Z,71.50
2019-01-20T23:54:03.835Z,72.38
2019-01-20T23:56:32.109Z,73.70
2019-01-20T23:59:00.413Z,73.82
